Time;durP1;ratioP1;P1;durP2;ratioP2;P2;SDS_P1;SDS_P2;PMS_P1;PMS_P2;Temp;Humidity;BMP_temperature;BMP_pressure;BME280_temperature;BME280_humidity;BME280_pressure;Samples;Min_cycle;Max_cycle;Signal;HPM_P1;HPM_P2
2022/03/17 00:02:05;;;;;;;32.63;24.38;;;8.10;99.90;;;;;;5068210;28;20207;-87
2022/03/17 00:04:32;;;;;;;31.58;24.00;;;;;;;;;;5065854;28;20216;-88
2022/03/17 00:07:01;;;;;;;30.13;22.80;;;;;;;;;;5070710;28;20567;-87
2022/03/17 00:09:29;;;;;;;33.65;24.42;;;;;;;;;;5071502;28;20266;-88
2022/03/17 00:11:56;;;;;;;34.20;25.80;;;;;;;;;;5073134;28;20209;-87
2022/03/17 00:14:23;;;;;;;30.23;24.00;;;;;;;;;;5072710;28;20599;-88
2022/03/17 00:16:50;;;;;;;27.42;22.45;;;;;;;;;;5072176;28;20260;-88
2022/03/17 00:19:18;;;;;;;29.10;23.23;;;;;;;;;;5071782;28;20231;-87
2022/03/17 00:21:45;;;;;;;30.00;23.30;;;;;;;;;;5070771;28;20639;-88
2022/03/17 00:24:14;;;;;;;30.65;23.00;;;;;;;;;;5070788;28;20198;-87
2022/03/17 00:26:41;;;;;;;32.13;24.20;;;;;;;;;;5069753;28;20207;-87
2022/03/17 00:29:08;;;;;;;28.08;24.40;;;;;;;;;;5071127;28;20270;-88
2022/03/17 00:31:37;;;;;;;33.00;24.70;;;;;;;;;;5071722;28;20207;-87
2022/03/17 00:34:05;;;;;;;34.30;26.15;;;;;;;;;;5072256;28;20209;-87
2022/03/17 00:36:34;;;;;;;35.30;24.05;;;;;;;;;;5070498;28;20213;-87
2022/03/17 00:39:01;;;;;;;33.05;26.80;;;;;;;;;;5069434;28;20845;-87
2022/03/17 00:41:30;;;;;;;33.83;23.67;;;;;;;;;;5070266;28;20243;-88
2022/03/17 00:43:57;;;;;;;35.35;24.73;;;;;;;;;;5071102;28;20203;-88
2022/03/17 00:46:24;;;;;;;32.25;23.50;;;;;;;;;;5069003;28;20205;-86
2022/03/17 00:48:52;;;;;;;34.92;25.70;;;;;;;;;;5064894;28;20974;-88
2022/03/17 00:51:18;;;;;;;29.88;23.63;;;7.80;96.40;;;;;;5070517;28;20263;-87
2022/03/17 00:53:46;;;;;;;30.35;24.42;;;;;;;;;;5069579;28;20208;-86
2022/03/17 00:56:13;;;;;;;32.22;22.55;;;8.10;99.90;;;;;;5069683;28;20222;-89
2022/03/17 00:58:45;;;;;;;28.70;21.95;;;7.90;99.90;;;;;;5070406;28;20246;-86
2022/03/17 01:01:13;;;;;;;34.13;22.73;;;7.90;99.90;;;;;;5070274;28;20218;-87
2022/03/17 01:03:40;;;;;;;32.63;24.92;;;7.60;99.90;;;;;;5063750;28;20579;-87
2022/03/17 01:06:08;;;;;;;35.60;26.92;;;;;;;;;;5070390;28;20200;-87
2022/03/17 01:08:35;;;;;;;34.28;25.45;;;7.70;96.80;;;;;;5070503;28;20200;-87
2022/03/17 01:11:03;;;;;;;32.97;24.13;;;;;;;;;;5070567;28;20685;-87
2022/03/17 01:13:31;;;;;;;34.78;25.23;;;;;;;;;;5070439;28;20616;-87
2022/03/17 01:16:00;;;;;;;34.88;25.38;;;;;;;;;;5061528;28;20253;-89
2022/03/17 01:18:27;;;;;;;32.35;23.80;;;;;;;;;;5053208;28;20207;-87
2022/03/17 01:20:56;;;;;;;32.35;25.52;;;;;;;;;;5068602;28;20200;-88
2022/03/17 01:23:24;;;;;;;36.33;24.25;;;;;;;;;;5071060;28;20283;-88
2022/03/17 01:25:52;;;;;;;30.00;24.20;;;;;;;;;;5070827;28;20225;-87
2022/03/17 01:28:21;;;;;;;34.80;25.35;;;;;;;;;;5070600;28;20211;-87
2022/03/17 01:30:49;;;;;;;33.70;24.08;;;;;;;;;;5071176;28;20249;-87
2022/03/17 01:33:18;;;;;;;32.90;22.40;;;;;;;;;;5070259;28;20203;-87
2022/03/17 01:35:45;;;;;;;31.10;23.90;;;;;;;;;;5069441;28;20223;-86
2022/03/17 01:38:12;;;;;;;36.65;24.17;;;7.00;99.90;;;;;;5069615;28;20211;-87
2022/03/17 01:40:39;;;;;;;32.92;23.63;;;;;;;;;;5069930;28;20253;-87
2022/03/17 01:43:06;;;;;;;30.92;24.27;;;;;;;;;;5070069;28;20206;-87
2022/03/17 01:45:34;;;;;;;33.50;23.65;;;;;;;;;;5063560;28;20227;-88
2022/03/17 01:48:01;;;;;;;33.42;25.08;;;;;;;;;;5068901;28;20279;-88
2022/03/17 01:50:30;;;;;;;35.60;25.70;;;;;;;;;;5069978;28;20263;-87
2022/03/17 01:52:57;;;;;;;33.45;24.63;;;;;;;;;;5070006;28;20204;-87
2022/03/17 01:55:25;;;;;;;32.28;25.25;;;;;;;;;;5069350;28;20211;-88
2022/03/17 01:57:52;;;;;;;36.88;26.95;;;;;;;;;;5069719;28;20295;-87
2022/03/17 02:00:22;;;;;;;32.28;25.65;;;7.10;98.70;;;;;;5070473;28;20214;-87
2022/03/17 02:02:51;;;;;;;38.58;26.45;;;7.10;98.50;;;;;;5068263;28;20462;-87
2022/03/17 02:05:19;;;;;;;34.25;25.70;;;;;;;;;;5070464;28;20199;-87
2022/03/17 02:07:49;;;;;;;37.70;26.20;;;7.00;99.90;;;;;;5062258;28;20774;-87
2022/03/17 02:10:17;;;;;;;33.75;23.63;;;7.20;98.40;;;;;;5069207;28;20192;-87
2022/03/17 02:15:32;;;;;;;35.85;25.73;;;8.60;99.10;;;;;;5068093;28;20678;-89
2022/03/17 02:17:59;;;;;;;47.42;26.65;;;6.90;99.90;;;;;;5068055;28;20273;-87
2022/03/17 02:20:27;;;;;;;35.10;25.52;;;7.00;99.90;;;;;;5068013;28;20261;-87
2022/03/17 02:25:33;;;;;;;33.05;24.60;;;7.00;99.90;;;;;;5068541;28;20193;-87
2022/03/17 02:25:50;;;;;;;32.78;24.27;;;7.30;99.90;;;;;;5068812;28;20202;-87
2022/03/17 02:28:18;;;;;;;37.40;28.02;;;7.10;99.90;;;;;;5069021;28;20196;-86
2022/03/17 02:30:46;;;;;;;36.22;25.58;;;7.40;99.90;;;;;;5075004;28;20191;-87
2022/03/17 02:33:16;;;;;;;36.25;27.88;;;7.10;99.90;;;;;;5076187;28;20206;-87
2022/03/17 02:35:45;;;;;;;33.33;26.58;;;7.30;99.90;;;;;;5070313;28;20227;-87
2022/03/17 02:38:14;;;;;;;39.30;27.33;;;7.00;99.90;;;;;;5068844;28;20698;-87
2022/03/17 02:40:43;;;;;;;35.80;26.17;;;7.10;99.90;;;;;;5063682;28;20333;-87
2022/03/17 02:43:14;;;;;;;35.30;26.50;;;7.50;99.90;;;;;;5069881;28;20702;-87
2022/03/17 02:45:43;;;;;;;36.40;26.65;;;7.40;97.60;;;;;;5069665;28;20253;-87
2022/03/17 02:48:10;;;;;;;44.10;26.40;;;;;;;;;;5068145;28;20208;-86
2022/03/17 02:50:38;;;;;;;36.75;26.15;;;7.30;99.90;;;;;;5068089;28;20211;-87
2022/03/17 02:53:06;;;;;;;46.47;29.80;;;;;;;;;;5060047;28;20204;-87
2022/03/17 02:55:34;;;;;;;34.22;26.30;;;;;;;;;;5057793;28;20208;-87
2022/03/17 02:58:01;;;;;;;39.97;27.48;;;;;;;;;;5070420;28;20206;-87
2022/03/17 03:00:29;;;;;;;37.25;27.02;;;;;;;;;;5074398;28;20667;-88
2022/03/17 03:02:56;;;;;;;36.80;28.35;;;7.30;99.90;;;;;;5074261;28;20200;-86
2022/03/17 03:05:24;;;;;;;38.70;27.23;;;;;;;;;;5073140;28;20206;-88
2022/03/17 03:07:52;;;;;;;39.80;28.05;;;;;;;;;;5073127;28;20208;-88
2022/03/17 03:10:19;;;;;;;37.20;26.65;;;;;;;;;;5069154;28;20221;-86
2022/03/17 03:12:46;;;;;;;37.83;28.88;;;;;;;;;;5069391;28;20231;-87
2022/03/17 03:15:13;;;;;;;36.35;26.67;;;;;;;;;;5069995;28;20221;-86
2022/03/17 03:17:42;;;;;;;35.70;25.05;;;;;;;;;;5060064;28;20223;-86
2022/03/17 03:20:10;;;;;;;39.80;27.92;;;;;;;;;;5073870;28;20215;-87
2022/03/17 03:22:39;;;;;;;36.55;26.95;;;;;;;;;;5073888;28;20207;-88
2022/03/17 03:25:07;;;;;;;38.53;27.08;;;7.40;96.70;;;;;;5073472;28;20200;-88
2022/03/17 03:27:35;;;;;;;40.40;28.85;;;;;;;;;;5071106;28;20253;-87
2022/03/17 03:30:02;;;;;;;35.47;27.63;;;;;;;;;;5072788;28;20203;-87
2022/03/17 03:32:29;;;;;;;35.30;27.10;;;7.70;99.90;;;;;;5074014;28;20634;-88
2022/03/17 03:34:57;;;;;;;37.53;26.70;;;7.40;99.90;;;;;;5068069;28;20803;-87
2022/03/17 03:37:24;;;;;;;35.10;26.83;;;;;;;;;;5072619;28;20300;-87
2022/03/17 03:39:52;;;;;;;35.67;26.65;;;;;;;;;;5064435;28;20664;-86
2022/03/17 03:42:19;;;;;;;38.47;27.10;;;;;;;;;;5072358;28;20238;-87
2022/03/17 03:44:46;;;;;;;37.28;27.10;;;;;;;;;;5072690;28;20200;-86
2022/03/17 03:47:14;;;;;;;45.42;29.58;;;;;;;;;;5073647;28;20670;-87
2022/03/17 03:49:42;;;;;;;38.25;27.13;;;;;;;;;;5074105;28;20246;-88
2022/03/17 03:52:12;;;;;;;41.53;28.33;;;7.40;97.00;;;;;;5072934;28;20222;-88
2022/03/17 03:54:40;;;;;;;36.70;27.20;;;;;;;;;;5070840;28;20230;-87
2022/03/17 03:57:08;;;;;;;36.47;28.52;;;7.50;96.90;;;;;;5073243;28;20219;-87
2022/03/17 03:59:36;;;;;;;42.70;28.10;;;7.50;96.80;;;;;;5073556;28;20210;-88
2022/03/17 04:02:05;;;;;;;38.53;29.20;;;8.80;97.30;;;;;;5073926;28;20207;-87
2022/03/17 04:04:34;;;;;;;38.10;26.52;;;;;;;;;;5070327;28;20244;-87
2022/03/17 04:07:03;;;;;;;35.30;26.83;;;7.60;96.30;;;;;;5073865;28;20200;-88
2022/03/17 04:09:34;;;;;;;38.45;27.40;;;7.50;96.40;;;;;;5072215;28;20263;-88
2022/03/17 04:12:01;;;;;;;39.95;28.17;;;;;;;;;;5067959;28;20219;-87
2022/03/17 04:14:29;;;;;;;39.88;27.05;;;;;;;;;;5072174;28;20212;-86
2022/03/17 04:16:57;;;;;;;34.60;25.30;;;;;;;;;;5064493;28;20220;-88
2022/03/17 04:19:24;;;;;;;41.97;29.20;;;;;;;;;;5072476;28;20253;-87
2022/03/17 04:21:52;;;;;;;35.42;26.00;;;7.50;96.50;;;;;;5071674;28;20274;-87
2022/03/17 04:24:19;;;;;;;35.50;25.98;;;;;;;;;;5071906;28;20204;-88
2022/03/17 04:26:48;;;;;;;40.15;27.77;;;;;;;;;;5070914;28;20208;-88
2022/03/17 04:29:16;;;;;;;34.40;26.50;;;7.50;96.20;;;;;;5067186;28;20219;-88
2022/03/17 04:31:44;;;;;;;36.00;25.80;;;;;;;;;;5069593;28;20207;-87
2022/03/17 04:34:11;;;;;;;36.65;26.98;;;;;;;;;;5072050;28;20663;-88
2022/03/17 04:36:38;;;;;;;33.13;24.75;;;;;;;;;;5071199;28;20274;-88
2022/03/17 04:39:08;;;;;;;38.35;28.27;;;7.50;96.20;;;;;;5072408;28;20200;-87
2022/03/17 04:41:37;;;;;;;39.15;27.65;;;;;;;;;;5061906;28;20196;-87
2022/03/17 04:44:06;;;;;;;37.08;27.25;;;;;;;;;;5071897;28;20650;-87
2022/03/17 04:46:35;;;;;;;36.67;27.23;;;;;;;;;;5072399;28;20203;-88
2022/03/17 04:49:03;;;;;;;38.72;25.08;;;;;;;;;;5071518;28;20199;-86
2022/03/17 04:51:31;;;;;;;38.63;28.58;;;;;;;;;;5063936;28;20213;-86
2022/03/17 04:53:58;;;;;;;38.33;26.70;;;;;;;;;;5055192;28;20572;-86
2022/03/17 04:56:25;;;;;;;36.78;27.38;;;;;;;;;;5067906;28;20204;-87
2022/03/17 04:58:52;;;;;;;40.80;28.55;;;;;;;;;;5071477;28;20211;-87
2022/03/17 05:01:21;;;;;;;39.28;26.45;;;;;;;;;;5071829;28;20204;-87
2022/03/17 05:03:48;;;;;;;37.13;26.77;;;;;;;;;;5060677;28;20708;-87
2022/03/17 05:06:17;;;;;;;40.03;28.77;;;7.50;95.70;;;;;;5072276;28;20282;-87
2022/03/17 05:08:44;;;;;;;35.38;26.05;;;7.50;99.90;;;;;;5072166;28;20211;-86
2022/03/17 05:11:13;;;;;;;39.05;27.25;;;;;;;;;;5071984;28;20203;-88
2022/03/17 05:13:40;;;;;;;36.22;25.85;;;;;;;;;;5051729;28;20239;-87
2022/03/17 05:16:09;;;;;;;43.72;28.70;;;7.40;95.90;;;;;;5055406;28;20219;-88
2022/03/17 05:18:37;;;;;;;42.72;27.58;;;;;;;;;;5067414;28;20335;-87
2022/03/17 05:21:05;;;;;;;39.55;27.58;;;;;;;;;;5071102;28;20199;-88
2022/03/17 05:23:33;;;;;;;38.45;27.05;;;;;;;;;;5070969;28;20211;-87
2022/03/17 05:26:03;;;;;;;39.88;26.05;;;7.30;96.20;;;;;;5060480;28;20207;-87
2022/03/17 05:28:30;;;;;;;40.58;27.17;;;;;;;;;;5070819;28;20333;-87
2022/03/17 05:30:58;;;;;;;42.97;27.48;;;;;;;;;;5070948;28;20210;-87
2022/03/17 05:33:25;;;;;;;40.53;29.98;;;;;;;;;;5070975;28;20602;-87
2022/03/17 05:35:55;;;;;;;42.30;26.88;;;;;;;;;;5070200;28;20227;-87
2022/03/17 05:38:22;;;;;;;41.92;27.65;;;;;;;;;;5071351;28;20539;-88
2022/03/17 05:40:51;;;;;;;37.17;27.08;;;;;;;;;;5059978;28;20208;-88
2022/03/17 05:43:18;;;;;;;44.38;27.70;;;;;;;;;;5067845;28;20564;-88
2022/03/17 05:45:45;;;;;;;38.17;27.35;;;7.00;96.10;;;;;;5068236;28;20212;-87
2022/03/17 05:48:12;;;;;;;40.55;27.73;;;7.30;99.90;;;;;;5067716;28;20543;-87
2022/03/17 05:50:41;;;;;;;36.60;27.20;;;7.50;95.70;;;;;;5061329;28;20243;-88
2022/03/17 05:53:11;;;;;;;41.88;26.85;;;7.40;99.90;;;;;;5067719;28;20207;-87
2022/03/17 05:55:38;;;;;;;36.30;26.45;;;7.10;96.00;;;;;;5068332;28;20249;-87
2022/03/17 05:58:06;;;;;;;36.00;25.92;;;7.40;95.90;;;;;;5071556;28;21080;-87
2022/03/17 06:00:35;;;;;;;41.67;28.15;;;7.40;96.00;;;;;;5072784;28;20722;-87
2022/03/17 06:03:04;;;;;;;36.95;26.45;;;7.40;99.90;;;;;;5073550;28;20208;-88
2022/03/17 06:05:31;;;;;;;45.58;28.63;;;7.50;99.90;;;;;;5075346;28;20224;-87
2022/03/17 06:08:00;;;;;;;41.15;26.90;;;7.50;95.60;;;;;;5068012;28;20278;-88
2022/03/17 06:10:32;;;;;;;41.90;29.25;;;7.60;95.30;;;;;;5065071;28;20200;-88
2022/03/17 06:13:00;;;;;;;34.85;25.40;;;6.90;99.90;;;;;;5059411;28;20226;-87
2022/03/17 06:15:28;;;;;;;41.35;27.17;;;7.70;99.90;;;;;;5060019;28;20207;-88
2022/03/17 06:17:56;;;;;;;36.28;26.13;;;7.70;99.90;;;;;;5058551;28;20220;-88
2022/03/17 06:20:24;;;;;;;35.63;27.02;;;7.60;95.40;;;;;;5060519;28;20202;-89
2022/03/17 06:22:53;;;;;;;34.13;24.90;;;7.60;99.90;;;;;;5063310;28;20223;-89
2022/03/17 06:25:21;;;;;;;39.15;27.73;;;7.50;99.90;;;;;;5059156;28;20236;-89
2022/03/17 06:27:50;;;;;;;37.08;25.67;;;7.20;99.90;;;;;;5056508;28;20271;-89
2022/03/17 06:30:18;;;;;;;39.88;27.17;;;7.90;99.90;;;;;;5058402;28;20266;-88
2022/03/17 06:32:46;;;;;;;42.15;27.83;;;7.30;99.90;;;;;;5058005;28;20203;-88
2022/03/17 06:35:17;;;;;;;35.65;25.98;;;7.50;99.90;;;;;;5064757;28;20314;-89
2022/03/17 06:37:46;;;;;;;42.65;26.60;;;7.30;99.90;;;;;;5059945;28;20213;-90
2022/03/17 06:40:13;;;;;;;41.08;26.45;;;7.20;99.90;;;;;;5059981;28;20254;-89
2022/03/17 06:42:40;;;;;;;36.33;26.40;;;7.70;99.90;;;;;;5060596;28;20204;-89
2022/03/17 06:45:10;;;;;;;43.17;27.63;;;7.60;99.90;;;;;;5060919;28;20208;-88
2022/03/17 06:47:37;;;;;;;42.97;29.65;;;7.40;99.90;;;;;;5058623;28;20227;-89
2022/03/17 06:50:04;;;;;;;46.00;30.33;;;;;;;;;;5058600;28;21139;-89
2022/03/17 06:52:31;;;;;;;37.28;25.80;;;;;;;;;;5061961;28;20286;-88
2022/03/17 06:54:58;;;;;;;38.20;27.20;;;7.30;99.90;;;;;;5060642;28;20566;-89
2022/03/17 06:57:25;;;;;;;40.80;26.67;;;7.30;99.90;;;;;;5061629;28;20300;-90
2022/03/17 06:59:53;;;;;;;36.20;26.83;;;7.60;99.90;;;;;;5060010;28;20231;-89
2022/03/17 07:02:24;;;;;;;39.83;29.13;;;;;;;;;;5058544;28;20231;-90
2022/03/17 07:04:51;;;;;;;38.88;27.58;;;7.60;96.40;;;;;;5060454;28;20683;-89
2022/03/17 07:07:18;;;;;;;38.15;27.13;;;7.70;96.60;;;;;;5059850;28;20624;-88
2022/03/17 07:09:45;;;;;;;41.28;28.90;;;7.80;99.90;;;;;;5059885;28;20223;-89
2022/03/17 07:12:12;;;;;;;46.45;29.95;;;7.90;99.90;;;;;;5059482;28;20221;-89
2022/03/17 07:14:39;;;;;;;38.53;27.70;;;7.70;99.90;;;;;;5058285;28;20223;-88
2022/03/17 07:17:07;;;;;;;46.47;28.85;;;7.70;99.90;;;;;;5058989;28;20235;-89
2022/03/17 07:19:35;;;;;;;44.67;29.42;;;7.80;99.90;;;;;;5064090;28;20208;-89
2022/03/17 07:22:02;;;;;;;38.15;26.13;;;8.30;99.90;;;;;;5059089;28;20291;-88
2022/03/17 07:24:30;;;;;;;37.88;27.02;;;;;;;;;;5060986;28;20207;-89
2022/03/17 07:26:58;;;;;;;38.85;27.45;;;7.90;96.70;;;;;;5059927;28;20321;-89
2022/03/17 07:29:25;;;;;;;40.28;28.40;;;7.90;97.30;;;;;;5060251;28;20205;-89
2022/03/17 07:31:54;;;;;;;39.33;28.60;;;8.00;97.10;;;;;;5061000;28;20342;-88
2022/03/17 07:34:21;;;;;;;45.58;29.08;;;8.10;96.90;;;;;;5070323;28;20235;-90
2022/03/17 07:36:51;;;;;;;40.92;28.30;;;8.20;99.90;;;;;;5065144;28;20221;-88
2022/03/17 07:39:18;;;;;;;41.58;29.42;;;;;;;;;;5064357;28;20305;-89
2022/03/17 07:41:45;;;;;;;39.90;28.02;;;8.20;96.50;;;;;;5064198;28;20276;-90
2022/03/17 07:44:13;;;;;;;42.40;28.47;;;8.40;99.90;;;;;;5062187;28;20262;-89
2022/03/17 07:46:40;;;;;;;38.75;28.20;;;8.30;96.50;;;;;;5063169;28;21166;-89
2022/03/17 07:49:08;;;;;;;36.13;26.88;;;8.30;97.00;;;;;;5069917;28;20204;-89
2022/03/17 07:51:35;;;;;;;38.28;27.02;;;8.30;96.70;;;;;;5044948;28;20238;-89
2022/03/17 07:54:04;;;;;;;44.35;27.23;;;8.60;99.90;;;;;;5047265;28;20302;-88
2022/03/17 07:56:32;;;;;;;36.92;26.20;;;8.30;99.90;;;;;;5064352;28;20217;-87
2022/03/17 07:58:59;;;;;;;39.20;28.27;;;8.40;99.90;;;;;;5046222;28;20264;-88
2022/03/17 08:01:26;;;;;;;36.30;26.60;;;8.40;99.90;;;;;;5058768;28;20631;-88
2022/03/17 08:03:54;;;;;;;45.07;29.83;;;;;;;;;;5057768;28;20699;-88
2022/03/17 08:06:22;;;;;;;39.33;30.10;;;8.60;95.90;;;;;;5068018;28;20985;-88
2022/03/17 08:08:50;;;;;;;37.23;26.70;;;;;;;;;;5077573;28;20690;-88
2022/03/17 08:11:19;;;;;;;40.47;28.90;;;;;;;;;;5066227;28;20639;-89
2022/03/17 08:13:46;;;;;;;41.57;31.70;;;8.60;99.90;;;;;;5068424;28;20645;-89
2022/03/17 08:16:13;;;;;;;41.80;28.50;;;8.70;99.90;;;;;;5062952;28;20632;-89
2022/03/17 08:18:41;;;;;;;45.00;31.10;;;8.10;99.90;;;;;;5065277;28;21676;-89
2022/03/17 08:21:08;;;;;;;40.37;29.20;;;9.00;99.90;;;;;;5064758;28;20639;-89
2022/03/17 08:23:35;;;;;;;38.17;28.90;;;8.90;95.70;;;;;;5062744;28;20636;-88
2022/03/17 08:26:05;;;;;;;43.70;27.97;;;9.00;99.90;;;;;;5066040;28;20619;-89
2022/03/17 08:28:52;;;;;;;41.70;28.53;;;8.60;99.90;;;;;;5066905;28;20740;-91
2022/03/17 08:31:19;;;;;;;40.73;28.37;;;;;;;;;;5064826;28;20636;-89
2022/03/17 08:33:46;;;;;;;42.33;28.80;;;8.70;99.90;;;;;;5063741;28;20724;-88
2022/03/17 08:36:13;;;;;;;38.87;28.83;;;8.70;99.90;;;;;;5054665;28;20644;-89
2022/03/17 08:38:40;;;;;;;36.77;27.20;;;9.10;99.90;;;;;;5060622;28;20769;-89
2022/03/17 08:41:09;;;;;;;35.33;25.87;;;;;;;;;;5060567;28;20691;-88
2022/03/17 08:43:36;;;;;;;37.00;25.87;;;;;;;;;;5058951;28;20609;-89
2022/03/17 08:51:35;;;;;;;40.30;30.03;;;9.80;99.90;;;;;;5071812;28;20619;-88
2022/03/17 08:54:02;;;;;;;44.60;33.20;;;;;;;;;;5065828;28;20748;-88
2022/03/17 08:56:29;;;;;;;43.67;29.87;;;9.00;99.90;;;;;;5064663;28;21241;-88
2022/03/17 08:59:02;;;;;;;38.93;28.50;;;8.90;99.90;;;;;;5069475;28;20625;-90
2022/03/17 09:01:31;;;;;;;40.77;28.73;;;;;;;;;;5064574;28;20624;-88
2022/03/17 09:03:58;;;;;;;42.13;28.30;;;9.20;99.90;;;;;;5062420;28;21182;-89
2022/03/17 09:06:24;;;;;;;38.07;27.17;;;9.50;96.00;;;;;;5067074;28;20684;-89
2022/03/17 09:08:52;;;;;;;38.43;27.03;;;9.10;95.80;;;;;;5069162;28;20636;-88
2022/03/17 09:11:19;;;;;;;36.37;27.10;;;9.50;96.20;;;;;;5069193;28;20679;-89
2022/03/17 09:13:49;;;;;;;37.93;26.17;;;9.20;95.80;;;;;;5068262;28;20633;-89
2022/03/17 09:16:16;;;;;;;42.37;26.77;;;9.30;95.60;;;;;;5066087;28;20728;-88
2022/03/17 09:18:45;;;;;;;45.13;28.10;;;9.40;99.90;;;;;;5057609;28;20662;-88
2022/03/17 09:21:13;;;;;;;41.60;26.80;;;9.30;95.50;;;;;;5060192;28;20633;-89
2022/03/17 09:23:40;;;;;;;40.47;28.80;;;9.40;99.90;;;;;;5057948;28;20629;-88
2022/03/17 09:26:07;;;;;;;34.67;26.60;;;9.70;99.90;;;;;;5067021;28;20682;-88
2022/03/17 09:28:35;;;;;;;40.00;27.70;;;9.40;95.80;;;;;;5061199;28;21259;-88
2022/03/17 09:31:02;;;;;;;35.57;28.10;;;9.50;95.60;;;;;;5068154;28;20632;-89
2022/03/17 09:33:29;;;;;;;35.57;27.60;;;;;;;;;;5068328;28;20710;-89
2022/03/17 09:35:58;;;;;;;38.80;26.53;;;9.70;95.10;;;;;;5060641;28;20644;-88
2022/03/17 09:38:25;;;;;;;35.77;25.67;;;;;;;;;;5062883;28;21226;-88
2022/03/17 09:40:52;;;;;;;33.40;26.77;;;9.80;94.90;;;;;;5062202;28;21010;-87
2022/03/17 09:43:21;;;;;;;38.20;26.40;;;9.80;95.10;;;;;;5059706;28;20705;-89
2022/03/17 09:45:53;;;;;;;37.27;26.47;;;9.80;95.30;;;;;;5069801;28;20626;-90
2022/03/17 09:48:22;;;;;;;36.33;23.90;;;9.90;95.40;;;;;;5059782;28;20620;-89
2022/03/17 09:50:55;;;;;;;30.87;21.80;;;9.80;95.40;;;;;;5054966;28;20780;-89
2022/03/17 09:53:24;;;;;;;37.37;23.87;;;10.30;99.90;;;;;;5049100;28;20629;-88
2022/03/17 09:55:51;;;;;;;33.70;24.70;;;9.90;95.30;;;;;;5053522;28;20653;-89
2022/03/17 09:58:19;;;;;;;37.00;23.40;;;9.90;95.50;;;;;;5057591;28;20649;-87
2022/03/17 10:00:49;;;;;;;31.77;23.60;;;10.00;94.70;;;;;;5054328;28;20692;-89
2022/03/17 10:03:17;;;;;;;37.60;23.40;;;10.00;95.00;;;;;;5063778;28;20672;-88
2022/03/17 10:05:46;;;;;;;39.23;24.83;;;10.00;94.50;;;;;;5058014;28;20622;-89
2022/03/17 10:08:14;;;;;;;33.83;23.93;;;10.00;94.80;;;;;;5060559;28;20650;-89
2022/03/17 10:10:46;;;;;;;28.40;23.10;;;10.00;99.90;;;;;;5064116;28;20625;-89
2022/03/17 10:13:16;;;;;;;35.37;22.73;;;10.10;94.90;;;;;;5061562;28;20724;-88
2022/03/17 10:15:45;;;;;;;31.37;23.87;;;10.00;95.20;;;;;;5070832;28;20612;-88
2022/03/17 10:18:24;;;;;;;38.97;23.13;;;10.10;95.20;;;;;;5063755;28;20676;-89
2022/03/17 10:21:08;;;;;;;30.53;23.47;;;10.30;96.00;;;;;;5061489;28;20667;-89
2022/03/17 10:23:37;;;;;;;34.37;23.00;;;;;;;;;;5061748;28;20694;-89
2022/03/17 10:26:05;;;;;;;31.70;23.50;;;10.20;95.20;;;;;;5059866;28;21023;-90
2022/03/17 10:28:32;;;;;;;38.33;23.70;;;10.30;95.50;;;;;;5062803;28;20631;-88
2022/03/17 10:31:07;;;;;;;29.07;22.47;;;10.30;94.90;;;;;;5061384;28;20625;-89
2022/03/17 10:33:34;;;;;;;29.23;22.73;;;10.60;99.90;;;;;;5061702;28;20702;-89
2022/03/17 10:36:21;;;;;;;31.60;22.97;;;10.50;95.80;;;;;;5059957;28;20657;-89
2022/03/17 10:38:48;;;;;;;30.27;23.43;;;10.60;95.40;;;;;;5059809;28;20752;-89
2022/03/17 10:41:17;;;;;;;36.07;24.93;;;10.70;95.60;;;;;;5062539;28;20675;-89
2022/03/17 10:43:45;;;;;;;36.60;24.60;;;10.70;95.40;;;;;;5066593;28;20629;-89
2022/03/17 10:46:15;;;;;;;33.80;23.70;;;10.70;95.50;;;;;;5070686;28;21048;-89
2022/03/17 10:48:59;;;;;;;30.60;23.10;;;10.70;95.70;;;;;;5071088;28;20627;-88
2022/03/17 10:51:34;;;;;;;33.67;24.43;;;10.70;95.50;;;;;;5067136;28;20629;-89
2022/03/17 10:54:09;;;;;;;29.57;22.60;;;10.80;95.90;;;;;;5066470;28;20636;-88
2022/03/17 10:56:39;;;;;;;34.10;23.33;;;10.80;95.60;;;;;;5062701;28;20617;-88
2022/03/17 10:59:07;;;;;;;33.33;23.77;;;10.90;95.90;;;;;;5057916;28;21056;-89
2022/03/17 11:01:39;;;;;;;31.37;23.27;;;10.80;96.10;;;;;;5061047;28;20668;-90
2022/03/17 11:04:07;;;;;;;34.97;24.90;;;10.90;95.70;;;;;;5062481;28;20633;-89
2022/03/17 11:06:34;;;;;;;35.27;24.10;;;11.00;99.90;;;;;;5065167;28;21235;-89
2022/03/17 11:09:02;;;;;;;33.43;24.33;;;;;;;;;;5066404;28;20694;-89
2022/03/17 11:11:29;;;;;;;30.40;22.80;;;11.00;95.80;;;;;;5063053;28;20617;-90
2022/03/17 11:13:59;;;;;;;29.53;23.57;;;11.20;99.90;;;;;;5062439;28;22348;-89
2022/03/17 11:16:33;;;;;;;34.03;22.90;;;11.00;96.10;;;;;;5065720;28;20629;-89
2022/03/17 11:19:01;;;;;;;31.30;21.20;;;10.90;96.40;;;;;;5069689;28;20776;-89
2022/03/17 11:21:30;;;;;;;31.23;21.07;;;11.00;99.90;;;;;;5068198;28;20655;-91
2022/03/17 11:24:05;;;;;;;29.10;21.30;;;10.80;96.70;;;;;;5069454;28;20736;-90
2022/03/17 11:26:35;;;;;;;28.70;21.97;;;10.80;97.10;;;;;;5063322;28;21596;-90
2022/03/17 11:29:08;;;;;;;34.40;22.30;;;10.80;96.80;;;;;;5058489;28;20664;-89
2022/03/17 11:32:00;;;;;;;33.60;23.40;;;10.80;96.70;;;;;;5060568;28;20633;-90
2022/03/17 11:34:48;;;;;;;28.47;20.97;;;10.80;96.80;;;;;;5059080;28;21073;-89
2022/03/17 11:37:21;;;;;;;30.30;22.20;;;10.90;97.20;;;;;;5060768;28;20628;-88
2022/03/17 11:39:50;;;;;;;27.37;21.63;;;10.60;97.50;;;;;;5068441;28;20635;-88
2022/03/17 11:42:34;;;;;;;34.40;21.67;;;10.50;97.70;;;;;;5072922;28;20637;-87
2022/03/17 11:45:11;;;;;;;34.17;21.93;;;10.50;99.90;;;;;;5080362;28;21501;-88
2022/03/17 11:47:43;;;;;;;33.60;23.60;;;10.40;98.20;;;;;;5069088;28;20681;-88
2022/03/17 11:50:33;;;;;;;33.73;22.80;;;10.30;99.90;;;;;;5070217;28;20632;-90
2022/03/17 11:53:02;;;;;;;33.57;23.47;;;10.30;98.40;;;;;;5064766;28;20925;-89
2022/03/17 11:55:38;;;;;;;35.87;23.10;;;10.70;99.90;;;;;;5064836;28;20637;-89
2022/03/17 11:58:28;;;;;;;33.20;22.77;;;10.80;98.80;;;;;;5062236;28;21291;-90
2022/03/17 12:01:11;;;;;;;33.03;25.00;;;10.20;98.80;;;;;;5058839;28;20648;-90
2022/03/17 12:03:42;;;;;;;37.03;25.07;;;10.20;99.40;;;;;;5065425;28;20730;-88
2022/03/17 12:06:19;;;;;;;33.67;25.53;;;10.20;99.50;;;;;;5069372;28;20712;-91
2022/03/17 12:08:58;;;;;;;44.47;26.70;;;10.30;99.90;;;;;;5069099;28;20621;-90
2022/03/17 12:11:27;;;;;;;35.27;26.00;;;10.20;99.90;;;;;;5068554;28;20625;-89
2022/03/17 12:14:24;;;;;;;37.50;26.63;;;10.10;99.90;;;;;;5067689;28;20746;-89
2022/03/17 12:16:57;;;;;;;38.03;27.97;;;10.20;99.90;;;;;;5065531;28;20613;-89
2022/03/17 12:19:31;;;;;;;42.07;30.33;;;10.20;99.90;;;;;;5063717;28;20678;-90
2022/03/17 12:22:17;;;;;;;39.60;27.57;;;10.30;99.90;;;;;;5067924;28;20621;-89
2022/03/17 12:24:47;;;;;;;44.60;31.20;;;10.10;99.90;;;;;;5066204;28;21080;-89
2022/03/17 12:27:19;;;;;;;43.33;30.17;;;10.50;99.90;;;;;;5063439;28;20629;-89
2022/03/17 12:29:47;;;;;;;45.70;31.00;;;10.00;99.90;;;;;;5067721;28;20739;-89
2022/03/17 12:32:18;;;;;;;47.57;29.60;;;10.10;99.90;;;;;;5068766;28;21187;-89
2022/03/17 12:34:47;;;;;;;45.90;29.77;;;10.00;99.90;;;;;;5065161;28;20629;-90
2022/03/17 12:37:16;;;;;;;46.30;30.80;;;10.00;99.90;;;;;;5060503;28;21028;-89
2022/03/17 12:39:48;;;;;;;49.60;31.23;;;10.10;99.90;;;;;;5068223;28;21233;-89
2022/03/17 12:42:18;;;;;;;45.00;29.50;;;10.20;99.90;;;;;;5068629;28;20621;-90
2022/03/17 12:44:58;;;;;;;47.93;32.40;;;10.00;99.90;;;;;;5068777;28;20632;-90
2022/03/17 12:47:28;;;;;;;45.37;31.27;;;10.10;99.90;;;;;;5068238;28;21190;-91
2022/03/17 12:49:57;;;;;;;45.07;30.30;;;10.90;99.90;;;;;;5067064;28;20621;-88
2022/03/17 12:52:25;;;;;;;43.20;27.43;;;10.20;99.90;;;;;;5055536;28;21026;-90
2022/03/17 12:54:54;;;;;;;43.93;29.87;;;10.20;99.90;;;;;;5060447;28;21128;-89
2022/03/17 12:57:22;;;;;;;42.40;29.73;;;10.30;99.90;;;;;;5062687;28;20665;-89
2022/03/17 12:59:49;;;;;;;39.47;27.73;;;10.30;99.90;;;;;;5065686;28;20703;-89
2022/03/17 13:02:17;;;;;;;44.43;28.93;;;10.30;99.90;;;;;;5070124;28;20624;-90
2022/03/17 13:04:48;;;;;;;36.87;26.97;;;10.20;99.90;;;;;;5067652;28;20632;-91
2022/03/17 13:07:16;;;;;;;42.83;30.87;;;10.40;99.90;;;;;;5071938;28;20654;-89
2022/03/17 13:09:44;;;;;;;47.13;30.17;;;10.20;99.90;;;;;;5068265;28;20645;-89
2022/03/17 13:14:59;;;;;;;42.33;29.07;;;10.20;99.90;;;;;;5069006;28;20625;-90
2022/03/17 13:17:30;;;;;;;39.80;29.00;;;10.20;99.90;;;;;;5067072;28;20610;-89
2022/03/17 13:19:59;;;;;;;45.07;31.03;;;10.20;99.90;;;;;;5065268;28;21027;-90
2022/03/17 13:22:28;;;;;;;40.53;29.40;;;10.20;99.90;;;;;;5070033;28;20958;-89
2022/03/17 13:25:05;;;;;;;43.60;31.03;;;10.20;99.90;;;;;;5066070;28;20633;-89
2022/03/17 13:27:33;;;;;;;42.27;31.20;;;10.20;99.90;;;;;;5071471;28;20644;-89
2022/03/17 13:30:02;;;;;;;44.43;28.93;;;10.20;99.90;;;;;;5071644;28;20621;-90